Washington Island, Wisconsin
Current Conditions -  °F | °C
As of 3:15 PM on Tuesday 21 Oct 2014 (Local Time) from KESC Reporting Station
Clear Clear  
Wind Chill: 50°   Ceiling: Unl
Heat Index: 50°   Visibility: 10mi
Dew Point: 23°   Wind: 9mph
Humidity: 35%   Direction: 50°NE
Pressure: 30.23"   Gusts: NA
Location:  45.36°N, 86.93°W
Report Text: KESC 212015Z AUTO 05008KT 10SM CLR 10/M05 A3023 RMK AO1
Loading
Personal Weather Stations






























Interactive Weather Map
Tropical Storm Tracking
New forecast layout! Learn more

10-Day Weather Forecast

Advertisements
Track Severe Weather on mobile